sensor_id;sensor_type;location;lat;lon;timestamp;P1;durP1;ratioP1;P2;durP2;ratioP2
74541;SDS011;63015;45.378;20.360;2022-11-27T00:01:45;147.75;;;35.40;;
74541;SDS011;63015;45.378;20.360;2022-11-27T00:03:46;134.38;;;33.10;;
74541;SDS011;63015;45.378;20.360;2022-11-27T00:05:51;134.93;;;35.10;;
74541;SDS011;63015;45.378;20.360;2022-11-27T00:07:55;163.55;;;34.63;;
74541;SDS011;63015;45.378;20.360;2022-11-27T00:09:56;174.45;;;35.38;;
74541;SDS011;63015;45.378;20.360;2022-11-27T00:11:57;125.63;;;32.55;;
74541;SDS011;63015;45.378;20.360;2022-11-27T00:13:58;145.60;;;34.13;;
74541;SDS011;63015;45.378;20.360;2022-11-27T00:15:59;146.43;;;32.50;;
74541;SDS011;63015;45.378;20.360;2022-11-27T00:17:59;134.77;;;33.70;;
74541;SDS011;63015;45.378;20.360;2022-11-27T00:20:00;121.75;;;32.65;;
74541;SDS011;63015;45.378;20.360;2022-11-27T00:22:01;137.50;;;32.78;;
74541;SDS011;63015;45.378;20.360;2022-11-27T00:24:02;147.77;;;33.67;;
74541;SDS011;63015;45.378;20.360;2022-11-27T00:26:04;123.47;;;32.15;;
74541;SDS011;63015;45.378;20.360;2022-11-27T00:28:05;128.05;;;31.85;;
74541;SDS011;63015;45.378;20.360;2022-11-27T00:30:06;140.10;;;35.22;;
74541;SDS011;63015;45.378;20.360;2022-11-27T00:32:07;127.82;;;34.15;;
74541;SDS011;63015;45.378;20.360;2022-11-27T00:34:08;227.30;;;37.55;;
74541;SDS011;63015;45.378;20.360;2022-11-27T00:36:10;132.95;;;34.30;;
74541;SDS011;63015;45.378;20.360;2022-11-27T00:38:11;151.60;;;36.75;;
74541;SDS011;63015;45.378;20.360;2022-11-27T00:40:11;149.65;;;36.67;;
74541;SDS011;63015;45.378;20.360;2022-11-27T00:42:12;166.88;;;36.00;;
74541;SDS011;63015;45.378;20.360;2022-11-27T00:44:13;144.30;;;34.53;;
74541;SDS011;63015;45.378;20.360;2022-11-27T00:46:17;144.02;;;34.75;;
74541;SDS011;63015;45.378;20.360;2022-11-27T00:48:22;130.77;;;32.50;;
74541;SDS011;63015;45.378;20.360;2022-11-27T00:50:23;200.68;;;37.50;;
74541;SDS011;63015;45.378;20.360;2022-11-27T00:52:23;138.48;;;33.58;;
74541;SDS011;63015;45.378;20.360;2022-11-27T00:54:24;154.07;;;34.20;;
74541;SDS011;63015;45.378;20.360;2022-11-27T00:56:29;145.55;;;32.28;;
74541;SDS011;63015;45.378;20.360;2022-11-27T00:58:31;137.50;;;33.33;;
74541;SDS011;63015;45.378;20.360;2022-11-27T01:00:32;165.00;;;33.30;;
74541;SDS011;63015;45.378;20.360;2022-11-27T01:02:33;135.50;;;35.38;;
74541;SDS011;63015;45.378;20.360;2022-11-27T01:04:33;183.40;;;38.97;;
74541;SDS011;63015;45.378;20.360;2022-11-27T01:06:34;141.57;;;36.22;;
74541;SDS011;63015;45.378;20.360;2022-11-27T01:08:34;110.07;;;30.48;;
74541;SDS011;63015;45.378;20.360;2022-11-27T01:10:35;104.05;;;28.38;;
74541;SDS011;63015;45.378;20.360;2022-11-27T01:12:35;104.20;;;28.75;;
74541;SDS011;63015;45.378;20.360;2022-11-27T01:14:36;115.95;;;29.35;;
74541;SDS011;63015;45.378;20.360;2022-11-27T01:16:37;94.40;;;30.45;;
74541;SDS011;63015;45.378;20.360;2022-11-27T01:18:39;100.30;;;29.10;;
74541;SDS011;63015;45.378;20.360;2022-11-27T01:20:41;101.53;;;29.63;;
74541;SDS011;63015;45.378;20.360;2022-11-27T01:22:42;97.53;;;28.73;;
74541;SDS011;63015;45.378;20.360;2022-11-27T01:24:42;98.15;;;26.90;;
74541;SDS011;63015;45.378;20.360;2022-11-27T01:26:43;92.60;;;26.27;;
74541;SDS011;63015;45.378;20.360;2022-11-27T01:28:44;84.78;;;24.90;;
74541;SDS011;63015;45.378;20.360;2022-11-27T01:30:46;85.57;;;24.15;;
74541;SDS011;63015;45.378;20.360;2022-11-27T01:32:47;84.93;;;23.38;;
74541;SDS011;63015;45.378;20.360;2022-11-27T01:34:47;75.00;;;22.58;;
74541;SDS011;63015;45.378;20.360;2022-11-27T01:36:48;62.40;;;19.92;;
74541;SDS011;63015;45.378;20.360;2022-11-27T01:38:48;64.07;;;19.77;;
74541;SDS011;63015;45.378;20.360;2022-11-27T01:40:59;61.10;;;18.15;;
74541;SDS011;63015;45.378;20.360;2022-11-27T01:43:02;62.78;;;18.88;;
74541;SDS011;63015;45.378;20.360;2022-11-27T01:45:02;58.50;;;19.20;;
74541;SDS011;63015;45.378;20.360;2022-11-27T01:47:10;62.05;;;18.70;;
74541;SDS011;63015;45.378;20.360;2022-11-27T01:51:18;59.47;;;19.08;;
74541;SDS011;63015;45.378;20.360;2022-11-27T01:53:21;62.75;;;18.83;;
74541;SDS011;63015;45.378;20.360;2022-11-27T01:55:27;57.63;;;18.05;;
74541;SDS011;63015;45.378;20.360;2022-11-27T01:57:47;61.60;;;19.52;;
74541;SDS011;63015;45.378;20.360;2022-11-27T01:59:52;59.95;;;18.65;;
74541;SDS011;63015;45.378;20.360;2022-11-27T02:01:55;71.30;;;21.17;;
74541;SDS011;63015;45.378;20.360;2022-11-27T02:03:57;65.20;;;21.35;;
74541;SDS011;63015;45.378;20.360;2022-11-27T02:05:59;66.90;;;21.77;;
74541;SDS011;63015;45.378;20.360;2022-11-27T02:08:02;64.68;;;19.95;;
74541;SDS011;63015;45.378;20.360;2022-11-27T02:10:07;61.90;;;20.02;;
74541;SDS011;63015;45.378;20.360;2022-11-27T02:12:15;70.28;;;20.10;;
74541;SDS011;63015;45.378;20.360;2022-11-27T02:17:02;64.10;;;19.02;;
74541;SDS011;63015;45.378;20.360;2022-11-27T02:24:41;60.28;;;18.65;;
74541;SDS011;63015;45.378;20.360;2022-11-27T02:29:04;68.15;;;18.27;;
74541;SDS011;63015;45.378;20.360;2022-11-27T02:31:17;61.47;;;18.55;;
74541;SDS011;63015;45.378;20.360;2022-11-27T02:33:21;71.97;;;20.00;;
74541;SDS011;63015;45.378;20.360;2022-11-27T02:35:31;70.00;;;19.23;;
74541;SDS011;63015;45.378;20.360;2022-11-27T02:37:39;71.40;;;19.98;;
74541;SDS011;63015;45.378;20.360;2022-11-27T02:39:53;73.13;;;19.77;;
74541;SDS011;63015;45.378;20.360;2022-11-27T02:42:17;69.32;;;19.38;;
74541;SDS011;63015;45.378;20.360;2022-11-27T02:44:20;77.03;;;20.08;;
74541;SDS011;63015;45.378;20.360;2022-11-27T02:46:23;83.97;;;21.05;;
74541;SDS011;63015;45.378;20.360;2022-11-27T02:48:29;77.85;;;20.20;;
74541;SDS011;63015;45.378;20.360;2022-11-27T02:50:32;75.78;;;19.10;;
74541;SDS011;63015;45.378;20.360;2022-11-27T02:52:35;80.68;;;20.83;;
74541;SDS011;63015;45.378;20.360;2022-11-27T02:54:37;82.75;;;21.60;;
74541;SDS011;63015;45.378;20.360;2022-11-27T02:56:40;78.30;;;20.83;;
74541;SDS011;63015;45.378;20.360;2022-11-27T02:58:44;79.38;;;21.35;;
74541;SDS011;63015;45.378;20.360;2022-11-27T03:00:46;85.35;;;21.48;;
74541;SDS011;63015;45.378;20.360;2022-11-27T03:02:49;81.25;;;21.27;;
74541;SDS011;63015;45.378;20.360;2022-11-27T03:04:56;81.60;;;21.30;;
74541;SDS011;63015;45.378;20.360;2022-11-27T03:07:00;84.90;;;22.00;;
74541;SDS011;63015;45.378;20.360;2022-11-27T03:09:11;80.78;;;21.27;;
74541;SDS011;63015;45.378;20.360;2022-11-27T03:11:16;80.55;;;22.20;;
74541;SDS011;63015;45.378;20.360;2022-11-27T03:13:16;80.13;;;22.67;;
74541;SDS011;63015;45.378;20.360;2022-11-27T03:15:18;67.85;;;20.40;;
74541;SDS011;63015;45.378;20.360;2022-11-27T03:17:28;67.68;;;21.88;;
74541;SDS011;63015;45.378;20.360;2022-11-27T03:19:53;74.60;;;22.42;;
74541;SDS011;63015;45.378;20.360;2022-11-27T03:21:56;80.72;;;24.58;;
74541;SDS011;63015;45.378;20.360;2022-11-27T03:23:59;75.68;;;23.88;;
74541;SDS011;63015;45.378;20.360;2022-11-27T03:26:00;74.93;;;23.42;;
74541;SDS011;63015;45.378;20.360;2022-11-27T03:28:02;75.57;;;22.90;;
74541;SDS011;63015;45.378;20.360;2022-11-27T03:30:06;82.75;;;23.58;;
74541;SDS011;63015;45.378;20.360;2022-11-27T03:32:08;72.75;;;22.20;;
74541;SDS011;63015;45.378;20.360;2022-11-27T03:34:09;75.57;;;22.85;;
74541;SDS011;63015;45.378;20.360;2022-11-27T03:36:12;79.63;;;23.30;;
74541;SDS011;63015;45.378;20.360;2022-11-27T03:38:17;70.80;;;22.77;;
74541;SDS011;63015;45.378;20.360;2022-11-27T03:40:18;66.75;;;22.10;;
74541;SDS011;63015;45.378;20.360;2022-11-27T03:42:30;79.22;;;23.48;;
74541;SDS011;63015;45.378;20.360;2022-11-27T03:50:04;72.30;;;22.15;;
74541;SDS011;63015;45.378;20.360;2022-11-27T03:52:19;69.75;;;21.40;;
74541;SDS011;63015;45.378;20.360;2022-11-27T03:54:43;74.03;;;22.40;;
74541;SDS011;63015;45.378;20.360;2022-11-27T03:57:27;67.10;;;21.55;;
74541;SDS011;63015;45.378;20.360;2022-11-27T03:59:42;67.50;;;22.08;;
74541;SDS011;63015;45.378;20.360;2022-11-27T04:01:45;68.13;;;21.98;;
74541;SDS011;63015;45.378;20.360;2022-11-27T04:03:46;70.90;;;22.90;;
74541;SDS011;63015;45.378;20.360;2022-11-27T04:05:47;74.32;;;23.35;;
74541;SDS011;63015;45.378;20.360;2022-11-27T04:07:47;75.32;;;22.58;;
74541;SDS011;63015;45.378;20.360;2022-11-27T04:09:48;65.30;;;21.80;;
74541;SDS011;63015;45.378;20.360;2022-11-27T04:11:49;75.40;;;21.30;;
74541;SDS011;63015;45.378;20.360;2022-11-27T04:13:49;74.97;;;21.67;;
74541;SDS011;63015;45.378;20.360;2022-11-27T04:15:51;71.10;;;21.63;;
74541;SDS011;63015;45.378;20.360;2022-11-27T04:17:51;63.65;;;20.92;;
74541;SDS011;63015;45.378;20.360;2022-11-27T04:19:52;74.40;;;22.48;;
74541;SDS011;63015;45.378;20.360;2022-11-27T04:21:53;65.10;;;21.23;;
74541;SDS011;63015;45.378;20.360;2022-11-27T04:23:53;55.83;;;19.55;;
74541;SDS011;63015;45.378;20.360;2022-11-27T04:25:54;66.55;;;21.33;;
74541;SDS011;63015;45.378;20.360;2022-11-27T04:27:55;62.53;;;21.08;;
74541;SDS011;63015;45.378;20.360;2022-11-27T04:29:55;66.57;;;22.65;;
74541;SDS011;63015;45.378;20.360;2022-11-27T04:31:56;70.97;;;23.25;;
74541;SDS011;63015;45.378;20.360;2022-11-27T04:33:56;70.45;;;22.35;;
74541;SDS011;63015;45.378;20.360;2022-11-27T04:35:57;75.38;;;24.33;;
74541;SDS011;63015;45.378;20.360;2022-11-27T04:37:57;76.13;;;23.90;;
74541;SDS011;63015;45.378;20.360;2022-11-27T04:39:58;77.05;;;23.08;;
74541;SDS011;63015;45.378;20.360;2022-11-27T04:41:59;74.40;;;22.02;;
74541;SDS011;63015;45.378;20.360;2022-11-27T04:43:59;73.82;;;23.55;;
74541;SDS011;63015;45.378;20.360;2022-11-27T04:46:00;68.03;;;22.45;;
74541;SDS011;63015;45.378;20.360;2022-11-27T04:48:01;71.25;;;22.48;;
74541;SDS011;63015;45.378;20.360;2022-11-27T04:50:01;73.35;;;22.45;;
74541;SDS011;63015;45.378;20.360;2022-11-27T04:52:02;65.80;;;21.83;;
74541;SDS011;63015;45.378;20.360;2022-11-27T04:54:03;67.55;;;21.08;;
74541;SDS011;63015;45.378;20.360;2022-11-27T04:56:04;75.30;;;22.95;;
74541;SDS011;63015;45.378;20.360;2022-11-27T04:58:05;65.70;;;20.65;;
74541;SDS011;63015;45.378;20.360;2022-11-27T05:00:05;73.00;;;23.23;;
74541;SDS011;63015;45.378;20.360;2022-11-27T05:02:06;78.63;;;23.35;;
74541;SDS011;63015;45.378;20.360;2022-11-27T05:04:07;70.70;;;22.17;;
74541;SDS011;63015;45.378;20.360;2022-11-27T05:06:08;71.78;;;22.98;;
74541;SDS011;63015;45.378;20.360;2022-11-27T05:08:08;76.57;;;24.67;;
74541;SDS011;63015;45.378;20.360;2022-11-27T05:10:09;76.68;;;24.55;;
74541;SDS011;63015;45.378;20.360;2022-11-27T05:12:10;75.85;;;23.92;;
74541;SDS011;63015;45.378;20.360;2022-11-27T05:14:11;81.63;;;24.52;;
74541;SDS011;63015;45.378;20.360;2022-11-27T05:16:15;72.75;;;22.27;;
74541;SDS011;63015;45.378;20.360;2022-11-27T05:18:16;71.20;;;22.58;;
74541;SDS011;63015;45.378;20.360;2022-11-27T05:20:16;72.60;;;23.33;;
74541;SDS011;63015;45.378;20.360;2022-11-27T05:22:17;68.75;;;22.88;;
74541;SDS011;63015;45.378;20.360;2022-11-27T05:24:18;71.47;;;23.70;;
74541;SDS011;63015;45.378;20.360;2022-11-27T05:26:20;67.55;;;22.40;;
74541;SDS011;63015;45.378;20.360;2022-11-27T05:28:21;67.93;;;23.95;;
74541;SDS011;63015;45.378;20.360;2022-11-27T05:30:22;72.20;;;24.75;;
74541;SDS011;63015;45.378;20.360;2022-11-27T05:32:23;76.05;;;23.92;;
74541;SDS011;63015;45.378;20.360;2022-11-27T05:34:23;73.30;;;23.60;;
74541;SDS011;63015;45.378;20.360;2022-11-27T05:36:24;70.80;;;23.05;;
74541;SDS011;63015;45.378;20.360;2022-11-27T05:38:25;65.43;;;23.30;;
74541;SDS011;63015;45.378;20.360;2022-11-27T05:40:25;54.45;;;19.02;;
74541;SDS011;63015;45.378;20.360;2022-11-27T05:42:26;73.63;;;23.70;;
74541;SDS011;63015;45.378;20.360;2022-11-27T05:44:26;79.80;;;25.45;;
74541;SDS011;63015;45.378;20.360;2022-11-27T05:46:27;74.57;;;23.30;;
74541;SDS011;63015;45.378;20.360;2022-11-27T05:48:28;67.75;;;23.70;;
74541;SDS011;63015;45.378;20.360;2022-11-27T05:50:28;70.15;;;23.15;;
74541;SDS011;63015;45.378;20.360;2022-11-27T05:52:29;68.18;;;23.25;;
74541;SDS011;63015;45.378;20.360;2022-11-27T05:54:29;74.03;;;22.45;;
74541;SDS011;63015;45.378;20.360;2022-11-27T05:56:30;73.88;;;24.15;;
74541;SDS011;63015;45.378;20.360;2022-11-27T05:58:30;72.57;;;23.05;;
74541;SDS011;63015;45.378;20.360;2022-11-27T06:00:31;53.67;;;17.55;;
74541;SDS011;63015;45.378;20.360;2022-11-27T06:02:32;71.97;;;22.70;;
74541;SDS011;63015;45.378;20.360;2022-11-27T06:04:32;61.58;;;19.25;;
74541;SDS011;63015;45.378;20.360;2022-11-27T06:06:33;80.30;;;23.65;;
74541;SDS011;63015;45.378;20.360;2022-11-27T06:08:37;68.25;;;20.42;;
74541;SDS011;63015;45.378;20.360;2022-11-27T06:10:38;75.68;;;22.20;;
74541;SDS011;63015;45.378;20.360;2022-11-27T06:12:39;82.18;;;24.27;;
74541;SDS011;63015;45.378;20.360;2022-11-27T06:14:39;82.50;;;23.25;;
74541;SDS011;63015;45.378;20.360;2022-11-27T06:16:40;74.80;;;22.73;;
74541;SDS011;63015;45.378;20.360;2022-11-27T06:18:41;81.32;;;23.80;;
74541;SDS011;63015;45.378;20.360;2022-11-27T06:20:42;80.30;;;23.45;;
74541;SDS011;63015;45.378;20.360;2022-11-27T06:22:43;84.53;;;24.50;;
74541;SDS011;63015;45.378;20.360;2022-11-27T06:24:43;83.85;;;24.08;;
74541;SDS011;63015;45.378;20.360;2022-11-27T06:26:44;67.85;;;20.15;;
74541;SDS011;63015;45.378;20.360;2022-11-27T06:28:45;130.90;;;26.42;;
74541;SDS011;63015;45.378;20.360;2022-11-27T06:30:46;88.85;;;23.17;;
74541;SDS011;63015;45.378;20.360;2022-11-27T06:32:47;80.90;;;23.05;;
74541;SDS011;63015;45.378;20.360;2022-11-27T06:34:47;89.90;;;23.98;;
74541;SDS011;63015;45.378;20.360;2022-11-27T06:36:48;81.60;;;23.85;;
74541;SDS011;63015;45.378;20.360;2022-11-27T06:38:50;87.57;;;22.13;;
74541;SDS011;63015;45.378;20.360;2022-11-27T06:40:50;104.38;;;23.38;;
74541;SDS011;63015;45.378;20.360;2022-11-27T06:42:51;88.88;;;24.98;;
74541;SDS011;63015;45.378;20.360;2022-11-27T06:44:51;90.68;;;24.33;;
74541;SDS011;63015;45.378;20.360;2022-11-27T06:46:52;89.03;;;23.40;;
74541;SDS011;63015;45.378;20.360;2022-11-27T06:48:53;85.72;;;23.30;;
74541;SDS011;63015;45.378;20.360;2022-11-27T06:50:57;94.60;;;23.92;;
74541;SDS011;63015;45.378;20.360;2022-11-27T06:53:01;101.25;;;24.15;;
74541;SDS011;63015;45.378;20.360;2022-11-27T06:55:01;88.20;;;23.63;;
74541;SDS011;63015;45.378;20.360;2022-11-27T06:57:02;82.30;;;23.73;;
74541;SDS011;63015;45.378;20.360;2022-11-27T06:59:05;86.43;;;24.05;;
74541;SDS011;63015;45.378;20.360;2022-11-27T07:01:07;89.55;;;24.75;;
74541;SDS011;63015;45.378;20.360;2022-11-27T07:03:09;83.43;;;22.90;;
74541;SDS011;63015;45.378;20.360;2022-11-27T07:05:09;112.88;;;22.83;;
74541;SDS011;63015;45.378;20.360;2022-11-27T07:07:10;88.03;;;23.27;;
74541;SDS011;63015;45.378;20.360;2022-11-27T07:09:11;96.30;;;25.13;;
74541;SDS011;63015;45.378;20.360;2022-11-27T07:11:13;101.70;;;23.95;;
74541;SDS011;63015;45.378;20.360;2022-11-27T07:13:14;107.93;;;23.75;;
74541;SDS011;63015;45.378;20.360;2022-11-27T07:15:14;91.28;;;24.17;;
74541;SDS011;63015;45.378;20.360;2022-11-27T07:17:15;90.88;;;22.23;;
74541;SDS011;63015;45.378;20.360;2022-11-27T07:19:16;90.68;;;21.17;;
74541;SDS011;63015;45.378;20.360;2022-11-27T07:21:16;77.65;;;20.95;;
74541;SDS011;63015;45.378;20.360;2022-11-27T07:23:17;124.53;;;25.52;;
74541;SDS011;63015;45.378;20.360;2022-11-27T07:25:18;236.07;;;25.90;;
74541;SDS011;63015;45.378;20.360;2022-11-27T07:27:19;126.40;;;26.52;;
74541;SDS011;63015;45.378;20.360;2022-11-27T07:29:19;110.90;;;25.45;;
74541;SDS011;63015;45.378;20.360;2022-11-27T07:31:21;187.70;;;26.15;;
74541;SDS011;63015;45.378;20.360;2022-11-27T07:33:24;110.65;;;22.95;;
74541;SDS011;63015;45.378;20.360;2022-11-27T07:35:24;94.85;;;22.77;;
74541;SDS011;63015;45.378;20.360;2022-11-27T07:37:25;136.75;;;28.48;;
74541;SDS011;63015;45.378;20.360;2022-11-27T07:39:29;110.50;;;26.88;;
74541;SDS011;63015;45.378;20.360;2022-11-27T07:41:29;109.10;;;25.58;;
74541;SDS011;63015;45.378;20.360;2022-11-27T07:43:30;285.83;;;26.70;;
74541;SDS011;63015;45.378;20.360;2022-11-27T07:45:32;96.18;;;22.75;;
74541;SDS011;63015;45.378;20.360;2022-11-27T07:47:33;94.53;;;24.27;;
74541;SDS011;63015;45.378;20.360;2022-11-27T07:49:33;162.60;;;25.85;;
74541;SDS011;63015;45.378;20.360;2022-11-27T07:51:34;148.07;;;25.70;;
74541;SDS011;63015;45.378;20.360;2022-11-27T07:53:35;110.55;;;25.52;;
74541;SDS011;63015;45.378;20.360;2022-11-27T07:55:37;109.55;;;21.27;;
74541;SDS011;63015;45.378;20.360;2022-11-27T07:57:38;102.50;;;25.02;;
74541;SDS011;63015;45.378;20.360;2022-11-27T07:59:39;132.50;;;26.40;;
74541;SDS011;63015;45.378;20.360;2022-11-27T08:01:40;117.95;;;26.33;;
74541;SDS011;63015;45.378;20.360;2022-11-27T08:03:42;147.48;;;26.92;;
74541;SDS011;63015;45.378;20.360;2022-11-27T08:05:43;95.60;;;25.10;;
74541;SDS011;63015;45.378;20.360;2022-11-27T08:07:44;131.40;;;28.90;;
74541;SDS011;63015;45.378;20.360;2022-11-27T08:09:44;137.93;;;26.60;;
74541;SDS011;63015;45.378;20.360;2022-11-27T08:11:45;117.28;;;25.38;;
74541;SDS011;63015;45.378;20.360;2022-11-27T08:13:45;134.00;;;26.40;;
74541;SDS011;63015;45.378;20.360;2022-11-27T08:15:46;184.73;;;27.85;;
74541;SDS011;63015;45.378;20.360;2022-11-27T08:17:47;138.32;;;25.33;;
74541;SDS011;63015;45.378;20.360;2022-11-27T08:19:47;175.95;;;29.13;;
74541;SDS011;63015;45.378;20.360;2022-11-27T08:21:48;181.15;;;29.75;;
74541;SDS011;63015;45.378;20.360;2022-11-27T08:23:49;147.88;;;30.90;;
74541;SDS011;63015;45.378;20.360;2022-11-27T08:25:50;103.47;;;27.00;;
74541;SDS011;63015;45.378;20.360;2022-11-27T08:27:50;114.30;;;27.08;;
74541;SDS011;63015;45.378;20.360;2022-11-27T08:29:51;92.70;;;23.75;;
74541;SDS011;63015;45.378;20.360;2022-11-27T08:31:52;99.72;;;23.30;;
74541;SDS011;63015;45.378;20.360;2022-11-27T08:33:52;115.65;;;24.00;;
74541;SDS011;63015;45.378;20.360;2022-11-27T08:35:53;123.60;;;22.75;;
74541;SDS011;63015;45.378;20.360;2022-11-27T08:37:53;153.77;;;25.77;;
74541;SDS011;63015;45.378;20.360;2022-11-27T08:39:54;112.57;;;23.17;;
74541;SDS011;63015;45.378;20.360;2022-11-27T08:41:54;152.73;;;24.45;;
74541;SDS011;63015;45.378;20.360;2022-11-27T08:43:55;101.18;;;22.30;;
74541;SDS011;63015;45.378;20.360;2022-11-27T08:45:56;81.57;;;18.60;;
74541;SDS011;63015;45.378;20.360;2022-11-27T08:47:57;85.07;;;21.90;;
74541;SDS011;63015;45.378;20.360;2022-11-27T08:49:58;77.60;;;21.33;;
74541;SDS011;63015;45.378;20.360;2022-11-27T08:51:59;100.97;;;23.02;;
74541;SDS011;63015;45.378;20.360;2022-11-27T08:53:59;74.13;;;19.92;;
74541;SDS011;63015;45.378;20.360;2022-11-27T08:56:11;93.32;;;20.85;;
74541;SDS011;63015;45.378;20.360;2022-11-27T08:58:15;81.63;;;21.70;;
74541;SDS011;63015;45.378;20.360;2022-11-27T09:00:16;77.70;;;19.98;;
74541;SDS011;63015;45.378;20.360;2022-11-27T09:02:17;62.60;;;17.88;;
74541;SDS011;63015;45.378;20.360;2022-11-27T09:04:17;68.88;;;17.27;;
74541;SDS011;63015;45.378;20.360;2022-11-27T09:06:22;63.75;;;17.63;;
74541;SDS011;63015;45.378;20.360;2022-11-27T09:08:24;65.80;;;18.05;;
74541;SDS011;63015;45.378;20.360;2022-11-27T09:10:25;70.53;;;19.25;;
74541;SDS011;63015;45.378;20.360;2022-11-27T09:12:25;54.92;;;17.17;;
74541;SDS011;63015;45.378;20.360;2022-11-27T09:14:27;58.90;;;15.55;;
74541;SDS011;63015;45.378;20.360;2022-11-27T09:16:28;54.15;;;16.00;;
74541;SDS011;63015;45.378;20.360;2022-11-27T09:18:29;54.70;;;15.40;;
74541;SDS011;63015;45.378;20.360;2022-11-27T09:20:30;53.90;;;15.57;;
74541;SDS011;63015;45.378;20.360;2022-11-27T09:22:32;44.63;;;12.75;;
74541;SDS011;63015;45.378;20.360;2022-11-27T09:24:33;39.13;;;12.77;;
74541;SDS011;63015;45.378;20.360;2022-11-27T09:26:33;45.42;;;14.45;;
74541;SDS011;63015;45.378;20.360;2022-11-27T09:28:34;29.92;;;9.70;;
74541;SDS011;63015;45.378;20.360;2022-11-27T09:30:36;53.58;;;14.95;;
74541;SDS011;63015;45.378;20.360;2022-11-27T09:32:36;41.50;;;13.85;;
74541;SDS011;63015;45.378;20.360;2022-11-27T09:34:37;43.85;;;12.98;;
74541;SDS011;63015;45.378;20.360;2022-11-27T09:36:38;58.55;;;19.98;;
74541;SDS011;63015;45.378;20.360;2022-11-27T09:38:38;93.30;;;31.95;;
74541;SDS011;63015;45.378;20.360;2022-11-27T09:40:44;41.80;;;14.40;;
74541;SDS011;63015;45.378;20.360;2022-11-27T09:42:52;41.67;;;13.70;;
74541;SDS011;63015;45.378;20.360;2022-11-27T09:44:56;34.47;;;12.20;;
74541;SDS011;63015;45.378;20.360;2022-11-27T09:47:00;34.40;;;10.57;;
74541;SDS011;63015;45.378;20.360;2022-11-27T09:53:45;31.45;;;9.45;;
74541;SDS011;63015;45.378;20.360;2022-11-27T09:55:50;35.05;;;11.77;;
74541;SDS011;63015;45.378;20.360;2022-11-27T09:58:01;42.45;;;14.38;;
74541;SDS011;63015;45.378;20.360;2022-11-27T10:00:10;71.55;;;26.58;;
74541;SDS011;63015;45.378;20.360;2022-11-27T10:02:16;56.80;;;19.98;;
74541;SDS011;63015;45.378;20.360;2022-11-27T10:04:18;81.57;;;30.73;;
74541;SDS011;63015;45.378;20.360;2022-11-27T10:09:07;47.78;;;18.08;;
74541;SDS011;63015;45.378;20.360;2022-11-27T10:11:29;37.35;;;12.95;;
74541;SDS011;63015;45.378;20.360;2022-11-27T10:13:49;38.80;;;14.13;;
74541;SDS011;63015;45.378;20.360;2022-11-27T10:20:24;41.40;;;14.10;;
74541;SDS011;63015;45.378;20.360;2022-11-27T10:24:55;44.10;;;17.23;;
74541;SDS011;63015;45.378;20.360;2022-11-27T10:27:19;33.97;;;12.35;;
74541;SDS011;63015;45.378;20.360;2022-11-27T10:31:35;40.22;;;14.15;;
74541;SDS011;63015;45.378;20.360;2022-11-27T10:33:49;42.22;;;14.80;;
74541;SDS011;63015;45.378;20.360;2022-11-27T10:35:57;40.50;;;15.70;;
74541;SDS011;63015;45.378;20.360;2022-11-27T10:38:02;34.90;;;13.35;;
74541;SDS011;63015;45.378;20.360;2022-11-27T10:42:16;36.53;;;14.05;;
74541;SDS011;63015;45.378;20.360;2022-11-27T10:44:27;37.30;;;12.57;;
74541;SDS011;63015;45.378;20.360;2022-11-27T10:46:31;45.80;;;17.38;;
74541;SDS011;63015;45.378;20.360;2022-11-27T10:48:36;52.10;;;20.80;;
74541;SDS011;63015;45.378;20.360;2022-11-27T10:50:37;47.00;;;17.70;;
74541;SDS011;63015;45.378;20.360;2022-11-27T10:52:42;41.45;;;13.70;;
74541;SDS011;63015;45.378;20.360;2022-11-27T10:54:55;32.75;;;11.95;;
74541;SDS011;63015;45.378;20.360;2022-11-27T10:57:21;27.08;;;9.88;;
74541;SDS011;63015;45.378;20.360;2022-11-27T11:00:43;35.25;;;13.73;;
74541;SDS011;63015;45.378;20.360;2022-11-27T11:02:30;34.92;;;13.35;;
74541;SDS011;63015;45.378;20.360;2022-11-27T11:04:33;35.95;;;12.98;;
74541;SDS011;63015;45.378;20.360;2022-11-27T11:06:52;49.28;;;30.20;;
74541;SDS011;63015;45.378;20.360;2022-11-27T11:09:03;40.90;;;20.48;;
74541;SDS011;63015;45.378;20.360;2022-11-27T11:11:12;37.17;;;15.98;;
74541;SDS011;63015;45.378;20.360;2022-11-27T11:13:15;35.70;;;14.95;;
74541;SDS011;63015;45.378;20.360;2022-11-27T11:15:16;39.20;;;15.60;;
74541;SDS011;63015;45.378;20.360;2022-11-27T11:17:16;33.28;;;12.32;;
74541;SDS011;63015;45.378;20.360;2022-11-27T11:19:25;18.40;;;9.18;;
74541;SDS011;63015;45.378;20.360;2022-11-27T11:23:34;43.33;;;19.17;;
74541;SDS011;63015;45.378;20.360;2022-11-27T11:25:37;45.90;;;19.33;;
74541;SDS011;63015;45.378;20.360;2022-11-27T11:27:38;39.35;;;13.68;;
74541;SDS011;63015;45.378;20.360;2022-11-27T11:29:49;38.17;;;16.10;;
74541;SDS011;63015;45.378;20.360;2022-11-27T11:31:56;29.92;;;12.88;;
74541;SDS011;63015;45.378;20.360;2022-11-27T11:34:04;35.42;;;14.60;;
74541;SDS011;63015;45.378;20.360;2022-11-27T11:36:17;37.78;;;14.52;;
74541;SDS011;63015;45.378;20.360;2022-11-27T11:38:18;37.55;;;17.10;;
74541;SDS011;63015;45.378;20.360;2022-11-27T11:40:32;31.20;;;12.70;;
74541;SDS011;63015;45.378;20.360;2022-11-27T11:42:35;28.17;;;11.10;;
74541;SDS011;63015;45.378;20.360;2022-11-27T11:44:37;85.25;;;39.92;;
74541;SDS011;63015;45.378;20.360;2022-11-27T11:46:39;39.95;;;16.70;;
74541;SDS011;63015;45.378;20.360;2022-11-27T11:48:39;35.67;;;14.45;;
74541;SDS011;63015;45.378;20.360;2022-11-27T11:50:41;40.70;;;16.30;;
74541;SDS011;63015;45.378;20.360;2022-11-27T11:57:00;44.38;;;16.55;;
74541;SDS011;63015;45.378;20.360;2022-11-27T12:06:27;48.85;;;18.88;;
74541;SDS011;63015;45.378;20.360;2022-11-27T12:11:07;46.20;;;21.13;;
74541;SDS011;63015;45.378;20.360;2022-11-27T12:22:07;40.53;;;18.08;;
74541;SDS011;63015;45.378;20.360;2022-11-27T12:24:32;37.22;;;16.80;;
74541;SDS011;63015;45.378;20.360;2022-11-27T12:26:55;41.60;;;16.85;;
74541;SDS011;63015;45.378;20.360;2022-11-27T12:35:51;34.00;;;13.35;;
74541;SDS011;63015;45.378;20.360;2022-11-27T12:47:25;31.95;;;13.23;;
74541;SDS011;63015;45.378;20.360;2022-11-27T12:49:37;30.05;;;14.02;;
74541;SDS011;63015;45.378;20.360;2022-11-27T12:52:17;31.05;;;14.02;;
74541;SDS011;63015;45.378;20.360;2022-11-27T12:54:28;31.08;;;14.32;;
74541;SDS011;63015;45.378;20.360;2022-11-27T12:56:35;33.25;;;14.43;;
74541;SDS011;63015;45.378;20.360;2022-11-27T12:58:45;17.40;;;8.18;;
74541;SDS011;63015;45.378;20.360;2022-11-27T13:00:50;35.45;;;15.35;;
74541;SDS011;63015;45.378;20.360;2022-11-27T13:05:24;38.00;;;17.48;;
74541;SDS011;63015;45.378;20.360;2022-11-27T13:08:13;40.33;;;17.23;;
74541;SDS011;63015;45.378;20.360;2022-11-27T13:10:47;36.10;;;14.52;;
74541;SDS011;63015;45.378;20.360;2022-11-27T13:13:29;34.85;;;16.05;;